sensor_id;sensor_type;location;lat;lon;timestamp;P1;durP1;ratioP1;P2;durP2;ratioP2
69183;SDS011;56291;53.960;27.550;2022-07-24T00:01:04;17.52;;;9.80;;
69183;SDS011;56291;53.960;27.550;2022-07-24T00:03:31;18.20;;;10.65;;
69183;SDS011;56291;53.960;27.550;2022-07-24T00:05:57;14.63;;;10.52;;
69183;SDS011;56291;53.960;27.550;2022-07-24T00:08:23;12.57;;;9.40;;
69183;SDS011;56291;53.960;27.550;2022-07-24T00:10:50;14.82;;;9.88;;
69183;SDS011;56291;53.960;27.550;2022-07-24T00:13:16;15.77;;;11.25;;
69183;SDS011;56291;53.960;27.550;2022-07-24T00:15:42;11.85;;;9.88;;
69183;SDS011;56291;53.960;27.550;2022-07-24T00:18:09;14.63;;;10.60;;
69183;SDS011;56291;53.960;27.550;2022-07-24T00:20:37;16.00;;;11.10;;
69183;SDS011;56291;53.960;27.550;2022-07-24T00:23:04;12.50;;;10.23;;
69183;SDS011;56291;53.960;27.550;2022-07-24T00:25:30;16.55;;;10.32;;
69183;SDS011;56291;53.960;27.550;2022-07-24T00:27:57;13.80;;;10.57;;
69183;SDS011;56291;53.960;27.550;2022-07-24T00:30:23;14.02;;;10.65;;
69183;SDS011;56291;53.960;27.550;2022-07-24T00:32:50;16.75;;;9.95;;
69183;SDS011;56291;53.960;27.550;2022-07-24T00:35:16;14.43;;;9.82;;
69183;SDS011;56291;53.960;27.550;2022-07-24T00:37:43;11.40;;;9.48;;
69183;SDS011;56291;53.960;27.550;2022-07-24T00:40:11;13.23;;;10.07;;
69183;SDS011;56291;53.960;27.550;2022-07-24T00:42:39;12.35;;;9.50;;
69183;SDS011;56291;53.960;27.550;2022-07-24T00:45:05;13.63;;;10.45;;
69183;SDS011;56291;53.960;27.550;2022-07-24T00:47:32;14.38;;;10.02;;
69183;SDS011;56291;53.960;27.550;2022-07-24T00:49:59;13.02;;;10.23;;
69183;SDS011;56291;53.960;27.550;2022-07-24T00:52:25;16.88;;;10.10;;
69183;SDS011;56291;53.960;27.550;2022-07-24T00:54:52;16.25;;;11.13;;
69183;SDS011;56291;53.960;27.550;2022-07-24T00:57:18;15.25;;;11.00;;
69183;SDS011;56291;53.960;27.550;2022-07-24T00:59:45;16.55;;;12.25;;
69183;SDS011;56291;53.960;27.550;2022-07-24T01:02:11;15.05;;;11.52;;
69183;SDS011;56291;53.960;27.550;2022-07-24T01:04:38;15.80;;;12.60;;
69183;SDS011;56291;53.960;27.550;2022-07-24T01:07:05;13.18;;;10.20;;
69183;SDS011;56291;53.960;27.550;2022-07-24T01:09:46;15.38;;;10.30;;
69183;SDS011;56291;53.960;27.550;2022-07-24T01:12:14;14.43;;;10.73;;
69183;SDS011;56291;53.960;27.550;2022-07-24T01:14:40;16.75;;;11.30;;
69183;SDS011;56291;53.960;27.550;2022-07-24T01:17:07;13.50;;;10.13;;
69183;SDS011;56291;53.960;27.550;2022-07-24T01:19:33;13.20;;;9.88;;
69183;SDS011;56291;53.960;27.550;2022-07-24T01:21:59;20.08;;;11.32;;
69183;SDS011;56291;53.960;27.550;2022-07-24T01:24:30;13.02;;;10.13;;
69183;SDS011;56291;53.960;27.550;2022-07-24T01:26:57;15.70;;;10.25;;
69183;SDS011;56291;53.960;27.550;2022-07-24T01:29:23;17.52;;;10.00;;
69183;SDS011;56291;53.960;27.550;2022-07-24T01:31:49;16.05;;;9.80;;
69183;SDS011;56291;53.960;27.550;2022-07-24T01:34:15;14.45;;;10.05;;
69183;SDS011;56291;53.960;27.550;2022-07-24T01:36:42;18.83;;;9.75;;
69183;SDS011;56291;53.960;27.550;2022-07-24T01:39:09;17.95;;;9.77;;
69183;SDS011;56291;53.960;27.550;2022-07-24T01:41:35;14.30;;;9.80;;
69183;SDS011;56291;53.960;27.550;2022-07-24T01:44:01;17.98;;;9.93;;
69183;SDS011;56291;53.960;27.550;2022-07-24T01:46:31;13.73;;;9.63;;
69183;SDS011;56291;53.960;27.550;2022-07-24T01:48:57;15.23;;;9.73;;
69183;SDS011;56291;53.960;27.550;2022-07-24T01:51:23;13.23;;;9.38;;
69183;SDS011;56291;53.960;27.550;2022-07-24T01:53:50;12.48;;;9.30;;
69183;SDS011;56291;53.960;27.550;2022-07-24T01:56:16;14.77;;;9.48;;
69183;SDS011;56291;53.960;27.550;2022-07-24T01:58:42;14.80;;;9.35;;
69183;SDS011;56291;53.960;27.550;2022-07-24T02:01:08;14.85;;;9.43;;
69183;SDS011;56291;53.960;27.550;2022-07-24T02:03:36;15.10;;;9.70;;
69183;SDS011;56291;53.960;27.550;2022-07-24T02:06:04;17.58;;;9.88;;
69183;SDS011;56291;53.960;27.550;2022-07-24T02:08:30;18.67;;;9.90;;
69183;SDS011;56291;53.960;27.550;2022-07-24T02:10:57;19.42;;;10.88;;
69183;SDS011;56291;53.960;27.550;2022-07-24T02:13:23;15.63;;;10.23;;
69183;SDS011;56291;53.960;27.550;2022-07-24T02:15:52;12.85;;;8.82;;
69183;SDS011;56291;53.960;27.550;2022-07-24T02:18:18;16.60;;;9.63;;
69183;SDS011;56291;53.960;27.550;2022-07-24T02:20:48;15.02;;;9.60;;
69183;SDS011;56291;53.960;27.550;2022-07-24T02:23:15;17.45;;;9.52;;
69183;SDS011;56291;53.960;27.550;2022-07-24T02:25:55;14.38;;;10.48;;
69183;SDS011;56291;53.960;27.550;2022-07-24T02:30:51;15.85;;;9.30;;
69183;SDS011;56291;53.960;27.550;2022-07-24T02:35:53;11.27;;;7.63;;
69183;SDS011;56291;53.960;27.550;2022-07-24T02:38:22;11.55;;;7.72;;
69183;SDS011;56291;53.960;27.550;2022-07-24T02:40:56;11.88;;;7.53;;
69183;SDS011;56291;53.960;27.550;2022-07-24T02:43:22;13.27;;;8.43;;
69183;SDS011;56291;53.960;27.550;2022-07-24T02:45:48;11.10;;;7.35;;
69183;SDS011;56291;53.960;27.550;2022-07-24T02:48:15;10.55;;;7.95;;
69183;SDS011;56291;53.960;27.550;2022-07-24T02:50:41;11.05;;;7.85;;
69183;SDS011;56291;53.960;27.550;2022-07-24T02:53:08;11.57;;;8.27;;
69183;SDS011;56291;53.960;27.550;2022-07-24T02:55:34;14.75;;;8.32;;
69183;SDS011;56291;53.960;27.550;2022-07-24T02:58:00;15.95;;;8.63;;
69183;SDS011;56291;53.960;27.550;2022-07-24T03:00:27;12.65;;;8.35;;
69183;SDS011;56291;53.960;27.550;2022-07-24T03:02:53;12.30;;;8.25;;
69183;SDS011;56291;53.960;27.550;2022-07-24T03:05:20;11.95;;;7.90;;
69183;SDS011;56291;53.960;27.550;2022-07-24T03:07:46;10.32;;;7.55;;
69183;SDS011;56291;53.960;27.550;2022-07-24T03:10:13;11.02;;;7.78;;
69183;SDS011;56291;53.960;27.550;2022-07-24T03:12:40;8.60;;;6.93;;
69183;SDS011;56291;53.960;27.550;2022-07-24T03:15:07;9.80;;;6.60;;
69183;SDS011;56291;53.960;27.550;2022-07-24T03:17:34;9.90;;;6.57;;
69183;SDS011;56291;53.960;27.550;2022-07-24T03:20:00;10.20;;;6.35;;
69183;SDS011;56291;53.960;27.550;2022-07-24T03:22:27;8.18;;;6.10;;
69183;SDS011;56291;53.960;27.550;2022-07-24T03:24:53;8.18;;;6.00;;
69183;SDS011;56291;53.960;27.550;2022-07-24T03:27:19;8.70;;;5.80;;
69183;SDS011;56291;53.960;27.550;2022-07-24T03:29:46;5.72;;;4.40;;
69183;SDS011;56291;53.960;27.550;2022-07-24T03:32:12;6.45;;;5.47;;
69183;SDS011;56291;53.960;27.550;2022-07-24T03:34:38;6.20;;;4.75;;
69183;SDS011;56291;53.960;27.550;2022-07-24T03:37:05;6.00;;;4.45;;
69183;SDS011;56291;53.960;27.550;2022-07-24T03:39:31;7.32;;;3.72;;
69183;SDS011;56291;53.960;27.550;2022-07-24T03:41:57;7.45;;;4.63;;
69183;SDS011;56291;53.960;27.550;2022-07-24T03:44:23;5.80;;;4.15;;
69183;SDS011;56291;53.960;27.550;2022-07-24T03:46:50;4.55;;;3.70;;
69183;SDS011;56291;53.960;27.550;2022-07-24T03:49:16;4.65;;;3.83;;
69183;SDS011;56291;53.960;27.550;2022-07-24T03:51:42;7.85;;;5.00;;
69183;SDS011;56291;53.960;27.550;2022-07-24T03:54:10;5.78;;;4.45;;
69183;SDS011;56291;53.960;27.550;2022-07-24T03:56:36;6.28;;;4.65;;
69183;SDS011;56291;53.960;27.550;2022-07-24T03:59:02;6.47;;;4.30;;
69183;SDS011;56291;53.960;27.550;2022-07-24T04:01:29;5.40;;;4.05;;
69183;SDS011;56291;53.960;27.550;2022-07-24T04:03:55;8.18;;;4.50;;
69183;SDS011;56291;53.960;27.550;2022-07-24T04:06:23;6.20;;;4.47;;
69183;SDS011;56291;53.960;27.550;2022-07-24T04:08:49;7.65;;;4.50;;
69183;SDS011;56291;53.960;27.550;2022-07-24T04:11:16;7.63;;;4.88;;
69183;SDS011;56291;53.960;27.550;2022-07-24T04:13:42;8.15;;;4.90;;
69183;SDS011;56291;53.960;27.550;2022-07-24T04:16:08;6.28;;;5.00;;
69183;SDS011;56291;53.960;27.550;2022-07-24T04:18:35;8.15;;;5.63;;
69183;SDS011;56291;53.960;27.550;2022-07-24T04:21:01;7.75;;;5.18;;
69183;SDS011;56291;53.960;27.550;2022-07-24T04:23:27;8.52;;;5.22;;
69183;SDS011;56291;53.960;27.550;2022-07-24T04:25:54;7.55;;;5.28;;
69183;SDS011;56291;53.960;27.550;2022-07-24T04:28:20;6.60;;;5.53;;
69183;SDS011;56291;53.960;27.550;2022-07-24T04:30:47;8.02;;;5.50;;
69183;SDS011;56291;53.960;27.550;2022-07-24T04:33:13;6.10;;;5.13;;
69183;SDS011;56291;53.960;27.550;2022-07-24T04:35:40;7.85;;;5.40;;
69183;SDS011;56291;53.960;27.550;2022-07-24T04:38:06;8.07;;;4.88;;
69183;SDS011;56291;53.960;27.550;2022-07-24T04:40:32;7.68;;;5.40;;
69183;SDS011;56291;53.960;27.550;2022-07-24T04:42:59;7.80;;;4.93;;
69183;SDS011;56291;53.960;27.550;2022-07-24T04:45:25;8.00;;;5.30;;
69183;SDS011;56291;53.960;27.550;2022-07-24T04:47:51;6.22;;;4.72;;
69183;SDS011;56291;53.960;27.550;2022-07-24T04:50:21;5.97;;;4.63;;
69183;SDS011;56291;53.960;27.550;2022-07-24T04:52:47;7.45;;;4.68;;
69183;SDS011;56291;53.960;27.550;2022-07-24T04:55:13;6.97;;;5.40;;
69183;SDS011;56291;53.960;27.550;2022-07-24T04:57:40;7.70;;;4.95;;
69183;SDS011;56291;53.960;27.550;2022-07-24T05:02:38;6.57;;;5.20;;
69183;SDS011;56291;53.960;27.550;2022-07-24T05:05:07;6.05;;;4.57;;
69183;SDS011;56291;53.960;27.550;2022-07-24T05:07:34;7.25;;;4.85;;
69183;SDS011;56291;53.960;27.550;2022-07-24T05:10:00;6.22;;;4.45;;
69183;SDS011;56291;53.960;27.550;2022-07-24T05:12:29;5.57;;;4.30;;
69183;SDS011;56291;53.960;27.550;2022-07-24T05:14:59;7.80;;;4.72;;
69183;SDS011;56291;53.960;27.550;2022-07-24T05:17:25;6.30;;;4.50;;
69183;SDS011;56291;53.960;27.550;2022-07-24T05:19:51;6.60;;;4.53;;
69183;SDS011;56291;53.960;27.550;2022-07-24T05:22:17;6.10;;;4.18;;
69183;SDS011;56291;53.960;27.550;2022-07-24T05:24:50;7.50;;;4.28;;
69183;SDS011;56291;53.960;27.550;2022-07-24T05:27:16;5.85;;;4.40;;
69183;SDS011;56291;53.960;27.550;2022-07-24T05:29:42;8.07;;;4.55;;
69183;SDS011;56291;53.960;27.550;2022-07-24T05:32:09;4.95;;;3.75;;
69183;SDS011;56291;53.960;27.550;2022-07-24T05:34:38;5.93;;;3.55;;
69183;SDS011;56291;53.960;27.550;2022-07-24T05:37:05;4.40;;;3.65;;
69183;SDS011;56291;53.960;27.550;2022-07-24T05:39:32;6.28;;;3.47;;
69183;SDS011;56291;53.960;27.550;2022-07-24T05:41:58;4.47;;;3.50;;
69183;SDS011;56291;53.960;27.550;2022-07-24T05:44:25;4.28;;;3.67;;
69183;SDS011;56291;53.960;27.550;2022-07-24T05:46:51;4.97;;;3.80;;
69183;SDS011;56291;53.960;27.550;2022-07-24T05:49:17;5.85;;;3.65;;
69183;SDS011;56291;53.960;27.550;2022-07-24T05:51:44;6.60;;;3.50;;
69183;SDS011;56291;53.960;27.550;2022-07-24T05:54:10;6.63;;;3.60;;
69183;SDS011;56291;53.960;27.550;2022-07-24T05:59:06;5.20;;;3.72;;
69183;SDS011;56291;53.960;27.550;2022-07-24T06:01:32;4.40;;;3.58;;
69183;SDS011;56291;53.960;27.550;2022-07-24T06:03:58;4.95;;;3.90;;
69183;SDS011;56291;53.960;27.550;2022-07-24T06:06:25;4.65;;;3.83;;
69183;SDS011;56291;53.960;27.550;2022-07-24T06:08:51;6.05;;;3.80;;
69183;SDS011;56291;53.960;27.550;2022-07-24T06:11:17;5.15;;;3.90;;
69183;SDS011;56291;53.960;27.550;2022-07-24T06:13:45;5.25;;;3.58;;
69183;SDS011;56291;53.960;27.550;2022-07-24T06:16:11;4.28;;;3.40;;
69183;SDS011;56291;53.960;27.550;2022-07-24T06:18:37;4.93;;;3.28;;
69183;SDS011;56291;53.960;27.550;2022-07-24T06:21:04;4.95;;;3.42;;
69183;SDS011;56291;53.960;27.550;2022-07-24T06:23:30;6.00;;;3.65;;
69183;SDS011;56291;53.960;27.550;2022-07-24T06:25:58;4.30;;;3.00;;
69183;SDS011;56291;53.960;27.550;2022-07-24T06:28:25;5.63;;;3.33;;
69183;SDS011;56291;53.960;27.550;2022-07-24T06:30:51;4.45;;;3.20;;
69183;SDS011;56291;53.960;27.550;2022-07-24T06:33:18;5.95;;;3.20;;
69183;SDS011;56291;53.960;27.550;2022-07-24T06:35:44;4.60;;;3.30;;
69183;SDS011;56291;53.960;27.550;2022-07-24T06:38:10;4.38;;;3.22;;
69183;SDS011;56291;53.960;27.550;2022-07-24T06:40:37;6.07;;;3.45;;
69183;SDS011;56291;53.960;27.550;2022-07-24T06:43:04;5.05;;;3.70;;
69183;SDS011;56291;53.960;27.550;2022-07-24T06:45:30;4.68;;;3.55;;
69183;SDS011;56291;53.960;27.550;2022-07-24T06:47:58;5.85;;;3.00;;
69183;SDS011;56291;53.960;27.550;2022-07-24T06:50:26;4.82;;;3.20;;
69183;SDS011;56291;53.960;27.550;2022-07-24T06:52:53;4.65;;;3.33;;
69183;SDS011;56291;53.960;27.550;2022-07-24T06:55:19;6.15;;;3.15;;
69183;SDS011;56291;53.960;27.550;2022-07-24T06:57:46;5.22;;;3.45;;
69183;SDS011;56291;53.960;27.550;2022-07-24T07:00:12;4.80;;;3.40;;
69183;SDS011;56291;53.960;27.550;2022-07-24T07:02:39;4.65;;;3.47;;
69183;SDS011;56291;53.960;27.550;2022-07-24T07:05:06;3.78;;;2.95;;
69183;SDS011;56291;53.960;27.550;2022-07-24T07:07:34;4.47;;;3.17;;
69183;SDS011;56291;53.960;27.550;2022-07-24T07:10:02;5.40;;;3.30;;
69183;SDS011;56291;53.960;27.550;2022-07-24T07:12:29;4.75;;;3.05;;
69183;SDS011;56291;53.960;27.550;2022-07-24T07:14:55;4.68;;;3.38;;
69183;SDS011;56291;53.960;27.550;2022-07-24T07:17:23;4.32;;;3.20;;
69183;SDS011;56291;53.960;27.550;2022-07-24T07:19:50;5.68;;;2.85;;
69183;SDS011;56291;53.960;27.550;2022-07-24T07:22:16;4.07;;;2.83;;
69183;SDS011;56291;53.960;27.550;2022-07-24T07:24:42;3.58;;;2.80;;
69183;SDS011;56291;53.960;27.550;2022-07-24T07:27:09;5.85;;;3.00;;
69183;SDS011;56291;53.960;27.550;2022-07-24T07:29:35;4.45;;;3.20;;
69183;SDS011;56291;53.960;27.550;2022-07-24T07:32:01;5.03;;;3.35;;
69183;SDS011;56291;53.960;27.550;2022-07-24T07:34:28;6.07;;;3.08;;
69183;SDS011;56291;53.960;27.550;2022-07-24T07:36:54;6.47;;;3.38;;
69183;SDS011;56291;53.960;27.550;2022-07-24T07:39:20;5.80;;;2.88;;
69183;SDS011;56291;53.960;27.550;2022-07-24T07:41:47;4.82;;;3.30;;
69183;SDS011;56291;53.960;27.550;2022-07-24T07:44:13;3.70;;;3.03;;
69183;SDS011;56291;53.960;27.550;2022-07-24T07:46:39;3.35;;;3.05;;
69183;SDS011;56291;53.960;27.550;2022-07-24T07:49:05;4.40;;;3.08;;
69183;SDS011;56291;53.960;27.550;2022-07-24T07:51:32;4.43;;;3.10;;
69183;SDS011;56291;53.960;27.550;2022-07-24T07:53:58;4.13;;;3.10;;
69183;SDS011;56291;53.960;27.550;2022-07-24T07:56:24;3.10;;;2.80;;
69183;SDS011;56291;53.960;27.550;2022-07-24T07:58:51;3.85;;;2.80;;
69183;SDS011;56291;53.960;27.550;2022-07-24T08:01:17;3.28;;;2.55;;
69183;SDS011;56291;53.960;27.550;2022-07-24T08:03:44;4.07;;;3.00;;
69183;SDS011;56291;53.960;27.550;2022-07-24T08:06:10;4.28;;;2.80;;
69183;SDS011;56291;53.960;27.550;2022-07-24T08:08:36;4.07;;;2.78;;
69183;SDS011;56291;53.960;27.550;2022-07-24T08:11:03;3.28;;;2.90;;
69183;SDS011;56291;53.960;27.550;2022-07-24T08:13:29;3.55;;;3.10;;
69183;SDS011;56291;53.960;27.550;2022-07-24T08:15:55;3.83;;;3.13;;
69183;SDS011;56291;53.960;27.550;2022-07-24T08:18:22;3.70;;;3.33;;
69183;SDS011;56291;53.960;27.550;2022-07-24T08:20:48;5.35;;;3.30;;
69183;SDS011;56291;53.960;27.550;2022-07-24T08:23:15;3.05;;;2.70;;
69183;SDS011;56291;53.960;27.550;2022-07-24T08:25:42;3.83;;;3.00;;
69183;SDS011;56291;53.960;27.550;2022-07-24T08:28:08;3.38;;;2.63;;
69183;SDS011;56291;53.960;27.550;2022-07-24T08:30:34;3.25;;;2.95;;
69183;SDS011;56291;53.960;27.550;2022-07-24T08:33:01;3.80;;;3.15;;
69183;SDS011;56291;53.960;27.550;2022-07-24T08:35:27;3.67;;;3.10;;
69183;SDS011;56291;53.960;27.550;2022-07-24T08:37:54;3.22;;;2.90;;
69183;SDS011;56291;53.960;27.550;2022-07-24T08:40:21;4.10;;;3.15;;
69183;SDS011;56291;53.960;27.550;2022-07-24T08:42:48;4.47;;;3.35;;
69183;SDS011;56291;53.960;27.550;2022-07-24T08:45:15;6.10;;;3.70;;
69183;SDS011;56291;53.960;27.550;2022-07-24T08:47:41;3.50;;;2.90;;
69183;SDS011;56291;53.960;27.550;2022-07-24T08:50:09;3.92;;;3.28;;
69183;SDS011;56291;53.960;27.550;2022-07-24T08:52:35;4.20;;;3.05;;
69183;SDS011;56291;53.960;27.550;2022-07-24T08:55:04;4.45;;;3.30;;
69183;SDS011;56291;53.960;27.550;2022-07-24T08:57:30;5.15;;;3.38;;
69183;SDS011;56291;53.960;27.550;2022-07-24T08:59:57;4.75;;;3.50;;
69183;SDS011;56291;53.960;27.550;2022-07-24T09:02:24;4.70;;;3.13;;
69183;SDS011;56291;53.960;27.550;2022-07-24T09:04:57;5.35;;;3.20;;
69183;SDS011;56291;53.960;27.550;2022-07-24T09:07:25;4.93;;;3.80;;
69183;SDS011;56291;53.960;27.550;2022-07-24T09:10:04;3.50;;;3.20;;
69183;SDS011;56291;53.960;27.550;2022-07-24T09:12:34;4.32;;;3.47;;
69183;SDS011;56291;53.960;27.550;2022-07-24T09:17:53;4.13;;;3.50;;
69183;SDS011;56291;53.960;27.550;2022-07-24T09:20:22;5.18;;;3.20;;
69183;SDS011;56291;53.960;27.550;2022-07-24T09:22:50;4.40;;;3.58;;
69183;SDS011;56291;53.960;27.550;2022-07-24T09:25:17;5.05;;;3.63;;
69183;SDS011;56291;53.960;27.550;2022-07-24T09:30:23;6.88;;;3.70;;
69183;SDS011;56291;53.960;27.550;2022-07-24T09:32:54;3.80;;;3.35;;
69183;SDS011;56291;53.960;27.550;2022-07-24T09:35:32;3.42;;;3.05;;
69183;SDS011;56291;53.960;27.550;2022-07-24T09:38:10;3.88;;;3.30;;
69183;SDS011;56291;53.960;27.550;2022-07-24T09:40:39;4.55;;;3.53;;
69183;SDS011;56291;53.960;27.550;2022-07-24T09:48:20;3.58;;;3.28;;
69183;SDS011;56291;53.960;27.550;2022-07-24T09:50:52;3.50;;;3.20;;
69183;SDS011;56291;53.960;27.550;2022-07-24T09:53:21;4.28;;;2.95;;
69183;SDS011;56291;53.960;27.550;2022-07-24T09:56:03;3.03;;;2.63;;
69183;SDS011;56291;53.960;27.550;2022-07-24T09:58:33;3.28;;;2.97;;
69183;SDS011;56291;53.960;27.550;2022-07-24T10:01:05;4.63;;;2.92;;
69183;SDS011;56291;53.960;27.550;2022-07-24T10:03:34;3.70;;;3.25;;
69183;SDS011;56291;53.960;27.550;2022-07-24T10:06:07;4.07;;;3.25;;
69183;SDS011;56291;53.960;27.550;2022-07-24T10:08:36;4.20;;;3.08;;
69183;SDS011;56291;53.960;27.550;2022-07-24T10:11:04;3.78;;;3.20;;
69183;SDS011;56291;53.960;27.550;2022-07-24T10:13:30;3.70;;;3.35;;
69183;SDS011;56291;53.960;27.550;2022-07-24T10:18:48;3.78;;;2.92;;
69183;SDS011;56291;53.960;27.550;2022-07-24T10:26:43;3.75;;;3.00;;
69183;SDS011;56291;53.960;27.550;2022-07-24T10:31:53;3.22;;;2.92;;
69183;SDS011;56291;53.960;27.550;2022-07-24T10:40:03;3.08;;;2.75;;
69183;SDS011;56291;53.960;27.550;2022-07-24T10:45:35;3.72;;;2.60;;
69183;SDS011;56291;53.960;27.550;2022-07-24T10:53:29;4.00;;;3.03;;
69183;SDS011;56291;53.960;27.550;2022-07-24T10:56:19;3.03;;;2.63;;
69183;SDS011;56291;53.960;27.550;2022-07-24T11:01:33;4.72;;;3.00;;
69183;SDS011;56291;53.960;27.550;2022-07-24T11:07:08;4.07;;;2.90;;
69183;SDS011;56291;53.960;27.550;2022-07-24T11:12:27;4.25;;;2.85;;
69183;SDS011;56291;53.960;27.550;2022-07-24T11:14:58;5.78;;;3.10;;
69183;SDS011;56291;53.960;27.550;2022-07-24T11:17:47;3.10;;;2.80;;
69183;SDS011;56291;53.960;27.550;2022-07-24T11:20:15;4.70;;;3.00;;
69183;SDS011;56291;53.960;27.550;2022-07-24T11:22:47;7.03;;;3.90;;
69183;SDS011;56291;53.960;27.550;2022-07-24T11:30:27;5.05;;;3.03;;
69183;SDS011;56291;53.960;27.550;2022-07-24T11:35:28;4.20;;;3.08;;
69183;SDS011;56291;53.960;27.550;2022-07-24T11:37:58;4.65;;;3.00;;
69183;SDS011;56291;53.960;27.550;2022-07-24T11:40:26;5.45;;;2.80;;
69183;SDS011;56291;53.960;27.550;2022-07-24T11:42:59;3.72;;;2.83;;
69183;SDS011;56291;53.960;27.550;2022-07-24T11:45:28;4.53;;;2.80;;
69183;SDS011;56291;53.960;27.550;2022-07-24T11:47:54;5.45;;;2.83;;
69183;SDS011;56291;53.960;27.550;2022-07-24T11:50:22;3.42;;;2.85;;
69183;SDS011;56291;53.960;27.550;2022-07-24T11:52:50;4.30;;;2.97;;
69183;SDS011;56291;53.960;27.550;2022-07-24T11:55:18;4.40;;;2.70;;
69183;SDS011;56291;53.960;27.550;2022-07-24T11:57:49;4.22;;;2.70;;
69183;SDS011;56291;53.960;27.550;2022-07-24T12:00:27;4.20;;;2.60;;
69183;SDS011;56291;53.960;27.550;2022-07-24T12:02:54;4.13;;;2.58;;
69183;SDS011;56291;53.960;27.550;2022-07-24T12:05:33;4.63;;;2.70;;
69183;SDS011;56291;53.960;27.550;2022-07-24T12:08:03;5.70;;;2.88;;
69183;SDS011;56291;53.960;27.550;2022-07-24T12:10:40;4.50;;;2.60;;
69183;SDS011;56291;53.960;27.550;2022-07-24T12:13:06;4.25;;;2.70;;
69183;SDS011;56291;53.960;27.550;2022-07-24T12:15:34;4.07;;;2.80;;
69183;SDS011;56291;53.960;27.550;2022-07-24T12:18:07;4.43;;;2.50;;
69183;SDS011;56291;53.960;27.550;2022-07-24T12:20:37;3.00;;;2.60;;
69183;SDS011;56291;53.960;27.550;2022-07-24T12:23:05;4.07;;;2.50;;
69183;SDS011;56291;53.960;27.550;2022-07-24T12:25:36;4.50;;;2.45;;
69183;SDS011;56291;53.960;27.550;2022-07-24T12:28:04;4.07;;;2.50;;
69183;SDS011;56291;53.960;27.550;2022-07-24T12:30:33;4.55;;;2.65;;
69183;SDS011;56291;53.960;27.550;2022-07-24T12:33:07;3.60;;;2.50;;
69183;SDS011;56291;53.960;27.550;2022-07-24T12:38:38;3.22;;;2.38;;
69183;SDS011;56291;53.960;27.550;2022-07-24T12:46:32;4.65;;;2.50;;
69183;SDS011;56291;53.960;27.550;2022-07-24T12:49:04;3.03;;;2.28;;
69183;SDS011;56291;53.960;27.550;2022-07-24T12:56:50;4.85;;;2.38;;
69183;SDS011;56291;53.960;27.550;2022-07-24T12:59:25;2.88;;;2.45;;
69183;SDS011;56291;53.960;27.550;2022-07-24T13:04:31;4.47;;;2.80;;
69183;SDS011;56291;53.960;27.550;2022-07-24T13:06:59;3.22;;;2.35;;
69183;SDS011;56291;53.960;27.550;2022-07-24T13:09:27;4.28;;;2.30;;
69183;SDS011;56291;53.960;27.550;2022-07-24T13:11:54;3.10;;;2.40;;
69183;SDS011;56291;53.960;27.550;2022-07-24T13:14:22;3.28;;;2.53;;
69183;SDS011;56291;53.960;27.550;2022-07-24T13:16:50;4.68;;;2.60;;
69183;SDS011;56291;53.960;27.550;2022-07-24T13:19:18;4.68;;;2.50;;
69183;SDS011;56291;53.960;27.550;2022-07-24T13:21:45;4.18;;;2.85;;
69183;SDS011;56291;53.960;27.550;2022-07-24T13:24:13;5.07;;;2.83;;
69183;SDS011;56291;53.960;27.550;2022-07-24T13:26:41;6.70;;;2.95;;
69183;SDS011;56291;53.960;27.550;2022-07-24T13:29:08;5.05;;;2.80;;
69183;SDS011;56291;53.960;27.550;2022-07-24T13:31:37;5.72;;;3.20;;
69183;SDS011;56291;53.960;27.550;2022-07-24T13:34:04;6.40;;;2.95;;
69183;SDS011;56291;53.960;27.550;2022-07-24T13:36:32;4.20;;;3.20;;
69183;SDS011;56291;53.960;27.550;2022-07-24T13:39:00;6.18;;;3.60;;
69183;SDS011;56291;53.960;27.550;2022-07-24T13:41:28;4.97;;;3.38;;
69183;SDS011;56291;53.960;27.550;2022-07-24T13:43:54;7.25;;;3.25;;
69183;SDS011;56291;53.960;27.550;2022-07-24T13:46:20;6.55;;;4.40;;
69183;SDS011;56291;53.960;27.550;2022-07-24T13:48:47;7.10;;;4.72;;
69183;SDS011;56291;53.960;27.550;2022-07-24T13:51:15;5.45;;;3.72;;
69183;SDS011;56291;53.960;27.550;2022-07-24T13:53:41;8.18;;;4.03;;
69183;SDS011;56291;53.960;27.550;2022-07-24T13:56:08;8.77;;;4.40;;
69183;SDS011;56291;53.960;27.550;2022-07-24T13:58:36;5.70;;;3.78;;
69183;SDS011;56291;53.960;27.550;2022-07-24T15:27:28;4.85;;;3.42;;
69183;SDS011;56291;53.960;27.550;2022-07-24T15:29:54;5.25;;;3.28;;
69183;SDS011;56291;53.960;27.550;2022-07-24T15:32:20;4.45;;;3.35;;
69183;SDS011;56291;53.960;27.550;2022-07-24T15:34:47;6.32;;;3.85;;
69183;SDS011;56291;53.960;27.550;2022-07-24T15:37:13;5.97;;;4.07;;
69183;SDS011;56291;53.960;27.550;2022-07-24T15:39:39;5.03;;;3.42;;
69183;SDS011;56291;53.960;27.550;2022-07-24T15:42:06;6.80;;;3.22;;
69183;SDS011;56291;53.960;27.550;2022-07-24T15:44:32;5.45;;;3.50;;
69183;SDS011;56291;53.960;27.550;2022-07-24T15:46:59;5.97;;;3.40;;
69183;SDS011;56291;53.960;27.550;2022-07-24T15:49:25;6.20;;;3.40;;
69183;SDS011;56291;53.960;27.550;2022-07-24T15:51:51;5.72;;;3.22;;
69183;SDS011;56291;53.960;27.550;2022-07-24T15:54:17;4.53;;;3.30;;
69183;SDS011;56291;53.960;27.550;2022-07-24T15:56:44;6.25;;;3.22;;
69183;SDS011;56291;53.960;27.550;2022-07-24T15:59:10;3.60;;;3.17;;
69183;SDS011;56291;53.960;27.550;2022-07-24T16:01:36;4.55;;;3.30;;
69183;SDS011;56291;53.960;27.550;2022-07-24T16:04:03;4.13;;;2.97;;
69183;SDS011;56291;53.960;27.550;2022-07-24T16:06:29;4.40;;;2.97;;
69183;SDS011;56291;53.960;27.550;2022-07-24T16:08:55;6.85;;;3.45;;
69183;SDS011;56291;53.960;27.550;2022-07-24T16:11:22;4.63;;;3.50;;
69183;SDS011;56291;53.960;27.550;2022-07-24T16:13:48;4.72;;;3.30;;
69183;SDS011;56291;53.960;27.550;2022-07-24T16:16:14;5.63;;;3.72;;
69183;SDS011;56291;53.960;27.550;2022-07-24T16:18:41;6.60;;;3.55;;
69183;SDS011;56291;53.960;27.550;2022-07-24T16:21:07;5.93;;;3.25;;
69183;SDS011;56291;53.960;27.550;2022-07-24T16:23:34;4.75;;;3.25;;
69183;SDS011;56291;53.960;27.550;2022-07-24T16:26:00;4.45;;;2.80;;
69183;SDS011;56291;53.960;27.550;2022-07-24T16:28:28;7.35;;;3.28;;
69183;SDS011;56291;53.960;27.550;2022-07-24T16:30:54;6.53;;;3.40;;
69183;SDS011;56291;53.960;27.550;2022-07-24T16:33:20;4.70;;;3.00;;
69183;SDS011;56291;53.960;27.550;2022-07-24T16:35:47;5.40;;;3.13;;
69183;SDS011;56291;53.960;27.550;2022-07-24T16:38:13;5.32;;;3.03;;
69183;SDS011;56291;53.960;27.550;2022-07-24T16:40:39;5.20;;;3.20;;
69183;SDS011;56291;53.960;27.550;2022-07-24T16:43:05;6.00;;;3.20;;
69183;SDS011;56291;53.960;27.550;2022-07-24T16:45:32;3.67;;;3.03;;
69183;SDS011;56291;53.960;27.550;2022-07-24T16:47:58;4.45;;;3.30;;
69183;SDS011;56291;53.960;27.550;2022-07-24T16:50:24;4.35;;;3.25;;
69183;SDS011;56291;53.960;27.550;2022-07-24T16:52:51;12.68;;;3.42;;
69183;SDS011;56291;53.960;27.550;2022-07-24T16:55:17;5.35;;;3.20;;
69183;SDS011;56291;53.960;27.550;2022-07-24T16:57:43;7.60;;;3.20;;
69183;SDS011;56291;53.960;27.550;2022-07-24T17:00:10;5.20;;;3.30;;
69183;SDS011;56291;53.960;27.550;2022-07-24T17:02:38;6.70;;;3.35;;
69183;SDS011;56291;53.960;27.550;2022-07-24T17:05:07;4.47;;;3.10;;
69183;SDS011;56291;53.960;27.550;2022-07-24T17:07:34;7.28;;;3.58;;
69183;SDS011;56291;53.960;27.550;2022-07-24T17:10:01;4.15;;;3.28;;
69183;SDS011;56291;53.960;27.550;2022-07-24T17:12:30;5.95;;;2.92;;
69183;SDS011;56291;53.960;27.550;2022-07-24T17:14:57;4.68;;;3.17;;
69183;SDS011;56291;53.960;27.550;2022-07-24T17:17:23;4.22;;;3.10;;